Time;durP1;ratioP1;P1;durP2;ratioP2;P2;SDS_P1;SDS_P2;PMS_P1;PMS_P2;Temp;Humidity;BMP_temperature;BMP_pressure;BME280_temperature;BME280_humidity;BME280_pressure;Samples;Min_cycle;Max_cycle;Signal;HPM_P1;HPM_P2
2022/05/05 00:00:06;;;;;;;6.53;5.60;;;;;;;;;;5004663;28;20193;-74
2022/05/05 00:02:31;;;;;;;5.83;5.23;;;;;;;;;;5023596;28;20186;-74
2022/05/05 00:04:57;;;;;;;6.20;5.63;;;;;;;;;;5005237;28;20227;-74
2022/05/05 00:07:22;;;;;;;6.30;5.80;;;;;;;;;;5002418;28;20261;-74
2022/05/05 00:09:47;;;;;;;6.80;6.20;;;;;;;;;;5007023;28;20180;-74
2022/05/05 00:14:56;;;;;;;6.03;5.43;;;;;;;;;;5007360;28;20226;-74
2022/05/05 00:17:21;;;;;;;7.47;6.77;;;;;;;;;;5006722;28;20211;-74
2022/05/05 00:19:47;;;;;;;8.47;6.27;;;;;;;;;;5004497;28;20214;-74
2022/05/05 00:22:12;;;;;;;7.60;6.87;;;;;;;;;;5008301;28;20180;-74
2022/05/05 00:24:38;;;;;;;8.93;7.47;;;;;;;;;;5010404;28;20296;-74
2022/05/05 00:27:04;;;;;;;7.60;6.90;;;;;;;;;;5004467;28;20188;-74
2022/05/05 00:29:29;;;;;;;7.13;6.53;;;;;;;;;;5002986;28;20182;-74
2022/05/05 00:31:54;;;;;;;6.90;6.07;;;;;;;;;;5003221;28;20175;-74
2022/05/05 00:34:20;;;;;;;6.93;6.30;;;;;;;;;;5007433;28;20176;-74
2022/05/05 00:36:45;;;;;;;6.40;5.80;;;;;;;;;;5008563;28;20191;-74
2022/05/05 00:39:11;;;;;;;7.73;6.17;;;;;;;;;;5000762;28;20238;-74
2022/05/05 00:41:37;;;;;;;6.10;5.60;;;;;;;;;;5009086;28;20208;-73
2022/05/05 00:44:04;;;;;;;6.57;5.97;;;;;;;;;;5007099;28;20196;-74
2022/05/05 00:46:29;;;;;;;6.33;5.60;;;;;;;;;;5000817;28;20239;-74
2022/05/05 00:48:55;;;;;;;7.23;6.03;;;;;;;;;;5001418;28;20216;-74
2022/05/05 00:51:20;;;;;;;6.17;5.60;;;;;;;;;;5002750;28;20184;-74
2022/05/05 00:53:45;;;;;;;7.20;6.50;;;;;;;;;;5007442;28;20231;-74
2022/05/05 00:56:13;;;;;;;5.93;5.17;;;;;;;;;;5001921;28;20176;-75
2022/05/05 00:58:39;;;;;;;5.87;5.27;;;;;;;;;;5007257;28;20187;-74
2022/05/05 01:01:04;;;;;;;5.83;5.33;;;;;;;;;;5006815;28;20183;-74
2022/05/05 01:03:33;;;;;;;5.37;4.87;;;;;;;;;;5009285;28;20173;-74
2022/05/05 01:05:59;;;;;;;6.13;5.53;;;;;;;;;;5028124;28;20388;-74
2022/05/05 01:08:24;;;;;;;5.87;5.33;;;;;;;;;;5005415;28;20181;-74
2022/05/05 01:10:49;;;;;;;6.37;5.70;;;;;;;;;;5003493;28;20206;-74
2022/05/05 01:13:15;;;;;;;6.73;6.13;;;;;;;;;;5007393;28;20179;-74
2022/05/05 01:15:41;;;;;;;7.40;6.77;;;;;;;;;;5011023;28;20184;-74
2022/05/05 01:18:06;;;;;;;7.17;6.47;;;;;;;;;;5006383;28;20188;-74
2022/05/05 01:20:41;;;;;;;6.80;6.20;;;;;;;;;;5001915;28;20180;-74
2022/05/05 01:23:07;;;;;;;7.53;6.80;;;;;;;;;;5006737;28;20191;-74
2022/05/05 01:28:15;;;;;;;7.53;6.60;;;;;;;;;;5008641;28;20206;-74
2022/05/05 01:30:42;;;;;;;8.73;7.83;;;;;;;;;;5010566;28;20180;-74
2022/05/05 01:33:10;;;;;;;7.90;7.20;;;;;;;;;;5010899;28;20183;-74
2022/05/05 01:35:36;;;;;;;8.50;7.70;;;;;;;;;;5006066;28;20181;-74
2022/05/05 01:38:01;;;;;;;8.87;7.97;;;;;;;;;;5004457;28;20208;-74
2022/05/05 01:40:26;;;;;;;8.50;7.80;;;;;;;;;;5006576;28;20715;-74
2022/05/05 01:42:51;;;;;;;8.37;7.47;;;;;;;;;;5005758;28;20196;-74
2022/05/05 01:45:16;;;;;;;8.10;7.30;;;;;;;;;;5008865;28;20200;-74
2022/05/05 01:47:42;;;;;;;8.80;7.90;;;;;;;;;;5003873;28;20184;-74
2022/05/05 01:50:07;;;;;;;10.07;9.07;;;;;;;;;;5011443;28;20266;-74
2022/05/05 01:52:32;;;;;;;11.47;9.07;;;;;;;;;;5011439;28;20172;-74
2022/05/05 01:54:57;;;;;;;9.53;8.63;;;;;;;;;;5008167;28;20187;-74
2022/05/05 01:57:22;;;;;;;10.13;8.67;;;;;;;;;;4999809;28;20207;-74
2022/05/05 01:59:48;;;;;;;10.10;8.00;;;;;;;;;;5008083;28;20187;-74
2022/05/05 02:02:13;;;;;;;10.10;9.13;;;;;;;;;;5012333;28;20190;-74
2022/05/05 02:04:38;;;;;;;10.00;9.10;;;;;;;;;;5008457;28;20222;-74
2022/05/05 02:07:03;;;;;;;9.23;8.33;;;;;;;;;;5006027;28;20179;-74
2022/05/05 02:09:30;;;;;;;10.30;9.30;;;;;;;;;;5010365;28;20180;-74
2022/05/05 02:11:55;;;;;;;10.80;9.70;;;;;;;;;;5005001;28;20210;-74
2022/05/05 02:14:23;;;;;;;9.27;8.47;;;;;;;;;;5003114;28;20175;-74
2022/05/05 02:16:49;;;;;;;9.53;8.50;;;;;;;;;;5008893;28;20183;-74
2022/05/05 02:19:14;;;;;;;8.60;7.80;;;;;;;;;;5006012;28;20172;-74
2022/05/05 02:21:39;;;;;;;8.90;7.80;;;;;;;;;;5006761;28;20187;-74
2022/05/05 02:24:05;;;;;;;11.03;9.70;;;;;;;;;;5004521;28;20181;-74
2022/05/05 02:26:32;;;;;;;9.37;8.47;;;;;;;;;;4996165;28;20347;-74
2022/05/05 02:28:57;;;;;;;9.17;8.27;;;;;;;;;;5006924;28;20179;-74
2022/05/05 02:31:23;;;;;;;9.10;8.27;;;;;;;;;;5003000;28;20178;-74
2022/05/05 02:33:48;;;;;;;8.37;7.43;;;;;;;;;;5010966;28;20164;-74
2022/05/05 02:38:57;;;;;;;9.10;8.23;;;;;;;;;;5009804;28;20366;-75
2022/05/05 02:41:22;;;;;;;8.40;7.60;;;;;;;;;;5002930;28;20266;-74
2022/05/05 02:43:47;;;;;;;7.93;7.13;;;;;;;;;;5011050;28;20183;-74
2022/05/05 02:46:12;;;;;;;8.40;7.63;;;;;;;;;;5010537;28;20206;-74
2022/05/05 02:48:38;;;;;;;8.20;7.40;;;;;;;;;;5000976;28;20191;-74
2022/05/05 02:51:03;;;;;;;11.50;8.83;;;;;;;;;;5008062;28;20181;-74
2022/05/05 02:56:12;;;;;;;7.93;7.20;;;;;;;;;;5001166;28;20199;-74
2022/05/05 02:58:37;;;;;;;8.30;7.50;;;;;;;;;;5010099;28;20184;-74
2022/05/05 03:01:02;;;;;;;8.20;7.27;;;;;;;;;;5007631;28;20176;-74
2022/05/05 03:03:27;;;;;;;7.60;6.87;;;;;;;;;;5009711;28;20187;-74
2022/05/05 03:05:53;;;;;;;9.07;7.80;;;;;;;;;;5006773;28;20203;-74
2022/05/05 03:08:18;;;;;;;8.83;8.03;;;;;;;;;;5007202;28;20175;-74
2022/05/05 03:10:43;;;;;;;9.07;7.67;;;;;;;;;;5003778;28;20631;-74
2022/05/05 03:13:08;;;;;;;8.93;8.00;;;;;;;;;;5006751;28;20177;-74
2022/05/05 03:15:33;;;;;;;9.73;7.73;;;;;;;;;;5007416;28;20226;-74
2022/05/05 03:17:59;;;;;;;8.90;8.10;;;;;;;;;;5006306;28;20258;-74
2022/05/05 03:20:24;;;;;;;9.40;8.40;;;;;;;;;;5001898;28;20187;-75
2022/05/05 03:22:49;;;;;;;9.13;8.20;;;;;;;;;;5006075;28;20184;-74
2022/05/05 03:25:14;;;;;;;8.60;7.73;;;;;;;;;;5010653;28;20206;-74
2022/05/05 03:27:39;;;;;;;9.50;8.37;;;;;;;;;;5005644;28;20183;-74
2022/05/05 03:30:05;;;;;;;8.33;7.53;;;;;;;;;;5001065;28;20305;-74
2022/05/05 03:32:32;;;;;;;11.43;9.63;;;;;;;;;;5004336;28;20260;-74
2022/05/05 03:34:57;;;;;;;9.73;8.53;;;;;;;;;;5004969;28;20202;-74
2022/05/05 03:37:22;;;;;;;9.83;8.80;;;;;;;;;;5001123;28;20192;-75
2022/05/05 03:39:47;;;;;;;10.43;8.87;;;;;;;;;;5005753;28;20234;-74
2022/05/05 03:42:12;;;;;;;10.13;9.13;;;;;;;;;;5007023;28;20188;-74
2022/05/05 03:44:37;;;;;;;11.07;9.87;;;;;;;;;;5004308;28;20211;-74
2022/05/05 03:47:03;;;;;;;10.17;9.13;;;;;;;;;;5004299;28;20176;-74
2022/05/05 03:49:29;;;;;;;10.97;8.83;;;;;;;;;;5006115;28;20176;-74
2022/05/05 03:51:55;;;;;;;9.63;8.60;;;;;;;;;;5007718;28;20225;-74
2022/05/05 03:54:21;;;;;;;9.57;8.10;;;;;;;;;;4999524;28;20273;-74
2022/05/05 03:56:46;;;;;;;9.87;8.87;;;;;;;;;;4999390;28;20275;-74
2022/05/05 03:59:11;;;;;;;10.00;9.00;;;;;;;;;;5006409;28;20177;-74
2022/05/05 04:01:36;;;;;;;10.13;8.17;;;;;;;;;;5006445;28;20172;-74
2022/05/05 04:04:01;;;;;;;8.97;8.10;;;;;;;;;;5007282;28;20178;-74
2022/05/05 04:06:27;;;;;;;9.27;8.33;;;;;;;;;;5004603;28;20207;-74
2022/05/05 04:08:52;;;;;;;8.30;7.47;;;;;;;;;;5009668;28;20180;-74
2022/05/05 04:11:17;;;;;;;9.93;8.23;;;;;;;;;;5006504;28;20183;-74
2022/05/05 04:13:43;;;;;;;8.13;7.33;;;;;;;;;;5001752;28;20187;-74
2022/05/05 04:16:08;;;;;;;9.03;8.07;;;;;;;;;;5010357;28;20174;-74
2022/05/05 04:18:35;;;;;;;10.43;9.37;;;;;;;;;;5007534;28;20176;-75
2022/05/05 04:21:00;;;;;;;10.53;8.97;;;;;;;;;;5003879;28;20188;-74
2022/05/05 04:23:25;;;;;;;9.87;8.03;;;;;;;;;;5003453;28;20207;-75
2022/05/05 04:25:52;;;;;;;9.53;8.00;;;;;;;;;;5003819;28;20200;-74
2022/05/05 04:28:17;;;;;;;9.93;8.93;;;;;;;;;;5022937;28;20180;-74
2022/05/05 04:30:43;;;;;;;9.50;7.97;;;;;;;;;;5004418;28;20180;-74
2022/05/05 04:33:08;;;;;;;8.83;8.03;;;;;;;;;;5007965;28;20187;-74
2022/05/05 04:35:36;;;;;;;9.13;8.23;;;;;;;;;;5003716;28;20190;-74
2022/05/05 04:38:01;;;;;;;10.97;8.57;;;;;;;;;;5007812;28;20206;-74
2022/05/05 04:40:27;;;;;;;10.17;9.17;;;;;;;;;;5012049;28;20231;-74
2022/05/05 04:42:52;;;;;;;10.67;9.57;;;;;;;;;;5008794;28;20179;-74
2022/05/05 04:45:17;;;;;;;9.27;8.37;;;;;;;;;;5000679;28;20207;-78
2022/05/05 04:47:43;;;;;;;9.57;8.67;;;;;;;;;;5008773;28;20188;-74
2022/05/05 04:50:08;;;;;;;11.50;8.93;;;;;;;;;;5007396;28;20180;-74
2022/05/05 04:52:33;;;;;;;9.27;8.27;;;;;;;;;;5002210;28;20172;-74
2022/05/05 04:54:59;;;;;;;10.07;7.83;;;;;;;;;;5006575;28;20238;-73
2022/05/05 04:57:24;;;;;;;8.67;7.73;;;;;;;;;;5003271;28;20194;-74
2022/05/05 04:59:49;;;;;;;9.27;8.10;;;;;;;;;;5004228;28;20190;-74
2022/05/05 05:02:14;;;;;;;21.37;8.77;;;;;;;;;;5006127;28;20230;-74
2022/05/05 05:04:40;;;;;;;8.50;7.70;;;;;;;;;;5008144;28;20180;-74
2022/05/05 05:07:05;;;;;;;11.83;8.50;;;;;;;;;;5004852;28;20226;-74
2022/05/05 05:09:30;;;;;;;8.00;7.20;;;;;;;;;;5007931;28;20302;-74
2022/05/05 05:11:56;;;;;;;8.57;7.03;;;;;;;;;;5007012;28;20175;-74
2022/05/05 05:14:21;;;;;;;16.70;13.37;;;;;;;;;;5010611;28;20188;-74
2022/05/05 05:16:46;;;;;;;9.23;7.87;;;;;;;;;;5011040;28;20188;-73
2022/05/05 05:19:12;;;;;;;8.83;7.37;;;;;;;;;;5005390;28;20180;-74
2022/05/05 05:21:37;;;;;;;7.93;7.23;;;;;;;;;;5010483;28;20188;-73
2022/05/05 05:24:02;;;;;;;9.43;8.10;;;;;;;;;;5013061;28;20193;-74
2022/05/05 05:26:28;;;;;;;11.00;8.17;;;;;;;;;;5010473;28;20553;-73
2022/05/05 05:28:53;;;;;;;9.53;7.30;;;;;;;;;;5008394;28;20184;-73
2022/05/05 05:31:19;;;;;;;7.83;7.03;;;;;;;;;;5004622;28;20457;-73
2022/05/05 05:33:45;;;;;;;9.80;7.63;;;;;;;;;;5010745;28;20188;-73
2022/05/05 05:36:10;;;;;;;9.90;7.73;;;;;;;;;;5010605;28;20180;-74
2022/05/05 05:38:35;;;;;;;8.13;7.23;;;;;;;;;;4999830;28;20220;-74
2022/05/05 05:41:01;;;;;;;9.17;8.37;;;;;;;;;;5013235;28;20207;-73
2022/05/05 05:43:26;;;;;;;11.40;7.60;;;;;;;;;;5008904;28;20176;-73
2022/05/05 05:45:51;;;;;;;9.03;7.47;;;;;;;;;;5008824;28;20207;-74
2022/05/05 05:48:16;;;;;;;10.00;7.83;;;;;;;;;;5013037;28;20180;-74
2022/05/05 05:50:41;;;;;;;10.87;8.87;;;;;;;;;;5007197;28;20191;-73
2022/05/05 05:53:07;;;;;;;10.27;8.00;;;;;;;;;;5009540;28;20206;-74
2022/05/05 05:55:32;;;;;;;7.90;7.10;;;;;;;;;;5008549;28;20183;-73
2022/05/05 05:58:00;;;;;;;9.00;8.13;;;;;;;;;;5008980;28;20179;-73
2022/05/05 06:00:25;;;;;;;8.30;7.50;;;;;;;;;;5002658;28;20675;-73
2022/05/05 06:05:35;;;;;;;9.27;7.70;;;;;;;;;;5012024;28;20301;-73
2022/05/05 06:08:01;;;;;;;8.27;7.17;;;;;;;;;;5006707;28;20223;-73
2022/05/05 06:10:27;;;;;;;8.83;7.23;;;;;;;;;;5013105;28;20205;-73
2022/05/05 06:12:52;;;;;;;10.57;9.13;;;;;;;;;;5005572;28;20215;-74
2022/05/05 06:15:17;;;;;;;8.13;7.37;;;;;;;;;;5013229;28;20477;-73
2022/05/05 06:17:43;;;;;;;9.13;8.07;;;;;;;;;;5002987;28;20193;-74
2022/05/05 06:20:08;;;;;;;7.70;6.90;;;;;;;;;;5012334;28;20209;-73
2022/05/05 06:22:34;;;;;;;8.73;7.43;;;;;;;;;;5007532;28;20176;-74
2022/05/05 06:25:00;;;;;;;9.37;7.47;;;;;;;;;;5008937;28;20253;-73
2022/05/05 06:27:25;;;;;;;10.77;7.43;;;;;;;;;;5005990;28;20180;-74
2022/05/05 06:29:50;;;;;;;8.70;7.73;;;;;;;;;;5011295;28;20188;-73
2022/05/05 06:32:17;;;;;;;9.57;7.97;;;;;;;;;;5003652;28;20173;-73
2022/05/05 06:34:42;;;;;;;8.87;7.97;;;;;;;;;;5008286;28;20186;-74
2022/05/05 06:37:08;;;;;;;8.83;7.90;;;;;;;;;;5010874;28;20179;-74
2022/05/05 06:39:33;;;;;;;8.93;7.07;;;;;;;;;;5004440;28;20220;-74
2022/05/05 06:41:58;;;;;;;8.47;7.57;;;;;;;;;;5014316;28;20190;-73
2022/05/05 06:44:24;;;;;;;8.03;7.27;;;;;;;;;;5004133;28;20176;-73
2022/05/05 06:46:50;;;;;;;8.33;7.53;;;;;;;;;;5007208;28;20219;-73
2022/05/05 06:49:16;;;;;;;11.63;7.73;;;;;;;;;;5003773;28;20179;-74
2022/05/05 06:51:41;;;;;;;9.00;8.10;;;;;;;;;;5006180;28;20177;-74
2022/05/05 06:54:06;;;;;;;8.97;7.70;;;;;;;;;;5006367;28;20177;-73
2022/05/05 06:56:32;;;;;;;9.30;8.33;;;;;;;;;;5004322;28;20200;-73
2022/05/05 06:58:57;;;;;;;8.17;7.37;;;;;;;;;;5005992;28;20189;-74
2022/05/05 07:06:50;;;;;;;8.57;7.67;;;;;;;;;;5008452;28;20254;-74
2022/05/05 07:11:59;;;;;;;11.43;8.23;;;;;;;;;;5008028;28;20199;-74
2022/05/05 07:14:25;;;;;;;10.57;7.30;;;;;;;;;;5004855;28;20179;-74
2022/05/05 07:16:50;;;;;;;9.87;8.40;;;;;;;;;;5010260;28;20239;-74
2022/05/05 07:19:15;;;;;;;10.50;8.13;;;;;;;;;;5008929;28;20192;-74
2022/05/05 07:21:40;;;;;;;8.63;7.70;;;;;;;;;;5011293;28;20188;-74
2022/05/05 07:24:06;;;;;;;11.90;8.53;;;;;;;;;;5008952;28;20184;-75
2022/05/05 07:26:31;;;;;;;9.77;8.73;;;;;;;;;;5003952;28;20228;-74
2022/05/05 07:28:56;;;;;;;16.43;10.87;;;;;;;;;;4999543;28;20180;-74
2022/05/05 07:31:21;;;;;;;9.93;8.90;;;;;;;;;;5008129;28;20207;-74
2022/05/05 07:33:47;;;;;;;10.87;9.23;;;;;;;;;;5006052;28;20183;-75
2022/05/05 07:36:12;;;;;;;11.23;9.40;;;;;;;;;;5009978;28;20241;-74
2022/05/05 07:38:38;;;;;;;12.60;9.77;;;;;;;;;;5006990;28;20232;-75
2022/05/05 07:41:03;;;;;;;14.53;10.57;;;;;;;;;;5014225;28;20259;-74
2022/05/05 07:43:28;;;;;;;11.43;9.63;;;;;;;;;;5010179;28;20191;-75
2022/05/05 07:45:54;;;;;;;14.43;12.40;;;;;;;;;;4996805;28;20214;-74
2022/05/05 07:48:19;;;;;;;15.87;12.57;;;;;;;;;;5006394;28;20185;-74
2022/05/05 07:50:46;;;;;;;16.00;12.93;;;;;;;;;;5008974;28;20231;-75
2022/05/05 07:53:11;;;;;;;16.03;9.60;;;;;;;;;;5007310;28;20169;-74
2022/05/05 07:55:36;;;;;;;14.63;11.60;;;;;;;;;;5004117;28;20193;-75
2022/05/05 07:58:02;;;;;;;14.43;10.57;;;;;;;;;;5002557;28;20188;-75
2022/05/05 08:00:27;;;;;;;12.47;9.67;;;;;;;;;;5004353;28;20219;-75
2022/05/05 08:02:52;;;;;;;15.67;12.07;;;;;;;;;;5013804;28;20181;-74
2022/05/05 08:05:18;;;;;;;16.50;12.43;;;;;;;;;;5008158;28;20201;-74
2022/05/05 08:07:43;;;;;;;16.33;14.53;;;;;;;;;;5013659;28;20267;-74
2022/05/05 08:10:10;;;;;;;15.13;12.43;;;;;;;;;;5000813;28;20178;-74
2022/05/05 08:12:38;;;;;;;15.93;12.90;;;;;;;;;;5010150;28;20311;-74
2022/05/05 08:15:04;;;;;;;14.67;13.07;;;;;;;;;;5011454;28;20272;-74
2022/05/05 08:17:30;;;;;;;18.20;15.00;;;;;;;;;;5028454;28;20222;-76
2022/05/05 08:19:55;;;;;;;14.27;11.50;;;;;;;;;;5012862;28;20182;-75
2022/05/05 08:22:20;;;;;;;15.90;14.20;;;;;;;;;;5010484;28;20238;-74
2022/05/05 08:30:13;;;;;;;22.33;17.77;;;;;;;;;;5014097;28;20190;-74
2022/05/05 08:32:39;;;;;;;17.87;15.80;;;;;;;;;;5015745;28;20167;-74
2022/05/05 08:35:04;;;;;;;18.93;15.63;;;;;;;;;;5009664;28;20315;-74
2022/05/05 08:37:29;;;;;;;19.13;17.13;;;;;;;;;;5010028;28;20204;-74
2022/05/05 08:39:54;;;;;;;20.00;16.90;;;;;;;;;;5012998;28;20229;-74
2022/05/05 08:42:20;;;;;;;18.43;15.70;;;;;;;;;;5026399;28;20197;-74
2022/05/05 08:44:45;;;;;;;21.67;17.90;;;;;;;;;;5011301;28;20188;-74
2022/05/05 08:47:10;;;;;;;21.63;19.23;;;;;;;;;;5028751;28;20269;-73
2022/05/05 08:49:37;;;;;;;19.20;17.20;;;;;;;;;;5009388;28;20280;-74
2022/05/05 08:52:03;;;;;;;21.33;19.03;;;;;;;;;;5012278;28;20196;-74
2022/05/05 08:54:31;;;;;;;21.27;18.33;;;;;;;;;;5011253;28;20202;-74
2022/05/05 08:56:56;;;;;;;22.27;18.53;;;;;;;;;;5007730;28;20189;-74
2022/05/05 08:59:22;;;;;;;20.83;18.50;;;;;;;;;;5010780;28;20189;-74
2022/05/05 09:01:48;;;;;;;19.80;17.07;;;;;;;;;;5010571;28;20189;-74
2022/05/05 09:04:13;;;;;;;15.70;14.07;;;;;;;;;;5009661;28;20332;-75
2022/05/05 09:06:46;;;;;;;17.93;15.43;;;;;;;;;;5006554;28;20198;-75
2022/05/05 09:09:31;;;;;;;16.83;15.03;;;;;;;;;;5010083;28;20184;-75
2022/05/05 09:12:14;;;;;;;20.20;18.10;;;;;;;;;;5009178;28;20248;-74
2022/05/05 09:14:47;;;;;;;20.97;18.77;;;;;;;;;;5009111;28;20178;-75
2022/05/05 09:17:14;;;;;;;19.83;17.73;;;;;;;;;;5003971;28;20181;-74
2022/05/05 09:19:40;;;;;;;21.83;18.40;;;;;;;;;;5013674;28;20188;-74
2022/05/05 09:22:08;;;;;;;18.10;16.20;;;;;;;;;;5002987;28;20185;-75
2022/05/05 09:24:43;;;;;;;18.63;16.57;;;;;;;;;;5012349;28;20183;-74
2022/05/05 09:27:15;;;;;;;17.40;15.17;;;;;;;;;;5005743;28;20182;-75
2022/05/05 09:29:41;;;;;;;20.60;18.13;;;;;;;;;;5005524;28;20193;-75
2022/05/05 09:32:10;;;;;;;22.50;19.33;;;;;;;;;;5004239;28;20174;-75
2022/05/05 09:34:35;;;;;;;19.13;17.13;;;;;;;;;;5003240;28;20179;-75
2022/05/05 09:37:21;;;;;;;18.37;16.43;;;;;;;;;;5008880;28;20342;-74
2022/05/05 09:39:52;;;;;;;18.50;14.83;;;;;;;;;;5006577;28;20369;-75
2022/05/05 09:42:36;;;;;;;17.53;15.77;;;;;;;;;;5012816;28;20186;-74
2022/05/05 09:45:18;;;;;;;20.33;17.20;;;;;;;;;;5008611;28;20210;-74
2022/05/05 09:47:47;;;;;;;19.80;16.83;;;;;;;;;;5026401;28;20269;-74
2022/05/05 09:50:13;;;;;;;21.90;16.00;;;;;;;;;;5011164;28;20179;-75
2022/05/05 09:58:09;;;;;;;18.73;13.40;;;;;;;;;;5012953;28;20228;-74
2022/05/05 10:00:44;;;;;;;19.53;15.30;;;;;;;;;;5011943;28;20206;-74
2022/05/05 10:05:56;;;;;;;15.00;13.13;;;;;;;;;;4998996;28;20234;-74
2022/05/05 10:08:38;;;;;;;15.10;13.50;;;;;;;;;;5021881;28;20182;-74
2022/05/05 10:11:04;;;;;;;18.67;13.60;;;;;;;;;;4996975;28;20195;-74
2022/05/05 10:13:31;;;;;;;18.47;15.07;;;;;;;;;;5002547;28;20230;-74
2022/05/05 10:15:58;;;;;;;18.13;15.07;;;;;;;;;;5008392;28;20182;-74
2022/05/05 10:18:23;;;;;;;17.87;15.20;;;;;;;;;;5012091;28;20181;-74
2022/05/05 10:20:49;;;;;;;20.07;16.10;;;;;;;;;;5006903;28;20186;-74
2022/05/05 10:23:20;;;;;;;20.20;17.93;;;;;;;;;;5012205;28;20240;-75
2022/05/05 10:25:51;;;;;;;21.00;17.07;;;;;;;;;;5005045;28;20289;-74
2022/05/05 10:28:35;;;;;;;21.17;18.97;;;;;;;;;;4999342;28;20213;-75
2022/05/05 10:31:00;;;;;;;18.90;16.90;;;;;;;;;;5018806;28;20186;-75
2022/05/05 10:33:45;;;;;;;23.50;17.80;;;;;;;;;;5008472;28;20193;-75
2022/05/05 10:36:21;;;;;;;22.23;18.73;;;;;;;;;;5003645;28;20183;-74
2022/05/05 10:38:49;;;;;;;19.43;15.83;;;;;;;;;;5005125;28;20199;-75
2022/05/05 10:41:29;;;;;;;22.83;18.27;;;;;;;;;;5007818;28;20218;-75
2022/05/05 10:44:13;;;;;;;24.53;20.57;;;;;;;;;;5006910;28;20229;-74
2022/05/05 10:46:54;;;;;;;23.43;20.93;;;;;;;;;;5006866;28;20255;-74
2022/05/05 10:49:41;;;;;;;23.50;20.10;;;;;;;;;;4999786;28;20206;-75
2022/05/05 10:52:26;;;;;;;22.87;19.93;;;;;;;;;;5002053;28;20181;-74
2022/05/05 10:54:53;;;;;;;23.03;20.10;;;;;;;;;;5010735;28;20228;-74
2022/05/05 10:57:24;;;;;;;28.20;20.53;;;;;;;;;;5003630;28;20250;-74
2022/05/05 11:00:05;;;;;;;27.93;22.60;;;;;;;;;;5004578;28;20273;-75
2022/05/05 11:02:30;;;;;;;23.93;20.50;;;;;;;;;;5022607;28;20200;-74
2022/05/05 11:05:15;;;;;;;25.10;20.57;;;;;;;;;;5000248;28;20218;-75
2022/05/05 11:07:43;;;;;;;21.30;18.97;;;;;;;;;;5003958;28;20270;-74
2022/05/05 11:10:28;;;;;;;24.87;20.20;;;;;;;;;;5004422;28;20237;-75
2022/05/05 11:12:53;;;;;;;21.00;17.70;;;;;;;;;;5008657;28;20273;-74
2022/05/05 11:21:33;;;;;;;23.43;17.60;;;;;;;;;;5008937;28;20257;-75
2022/05/05 11:23:59;;;;;;;23.87;17.10;;;;;;;;;;4999140;28;20235;-74
2022/05/05 11:26:25;;;;;;;21.27;17.17;;;;;;;;;;5004224;28;20237;-74
2022/05/05 11:28:50;;;;;;;23.17;19.50;;;;;;;;;;5004759;28;20187;-74
2022/05/05 11:31:22;;;;;;;21.53;17.80;;;;;;;;;;5002156;28;20181;-74
2022/05/05 11:33:48;;;;;;;23.03;17.93;;;;;;;;;;4997366;28;20181;-74
2022/05/05 11:36:13;;;;;;;20.40;16.90;;;;;;;;;;5005570;28;20191;-74
2022/05/05 11:38:41;;;;;;;20.30;17.90;;;;;;;;;;4998086;28;20217;-74
2022/05/05 11:41:07;;;;;;;19.00;16.67;;;;;;;;;;5015341;28;20237;-74
2022/05/05 11:46:17;;;;;;;20.37;16.33;;;;;;;;;;5001044;28;20215;-74
2022/05/05 11:48:43;;;;;;;21.13;18.60;;;;;;;;;;5005527;28;20182;-75
2022/05/05 11:51:08;;;;;;;20.20;18.03;;;;;;;;;;4993714;28;20174;-74
2022/05/05 11:53:35;;;;;;;20.83;17.93;;;;;;;;;;4997356;28;20236;-74
2022/05/05 11:56:00;;;;;;;19.63;17.73;;;;;;;;;;5018294;28;20211;-74
2022/05/05 12:04:00;;;;;;;24.13;19.87;;;;;;;;;;5002784;28;20291;-74
2022/05/05 12:09:00;;;;;;;23.87;20.30;;;;;;;;;;5443043;23;20234;-74
2022/05/05 12:11:28;;;;;;;23.17;20.17;;;;;;;;;;4964503;28;20200;-74
2022/05/05 12:14:00;;;;;;;22.53;20.20;;;;;;;;;;4982974;28;20255;-74
2022/05/05 12:16:34;;;;;;;24.23;21.63;;;;;;;;;;4985212;28;20238;-73
2022/05/05 12:18:59;;;;;;;21.83;18.63;;;;;;;;;;4989191;28;20192;-74
2022/05/05 12:21:25;;;;;;;24.53;20.70;;;;;;;;;;4988724;28;20202;-74
2022/05/05 12:23:56;;;;;;;23.73;20.20;;;;;;;;;;4987520;28;20188;-73
2022/05/05 12:26:21;;;;;;;20.33;18.13;;;;;;;;;;5192336;23;20277;-76
2022/05/05 12:28:50;;;;;;;21.97;19.57;;;;;;;;;;5004762;28;20190;-76
2022/05/05 12:33:50;;;;;;;24.80;19.47;;;;;;;;;;5119863;23;20245;-74
2022/05/05 12:36:17;;;;;;;24.40;21.90;;;;;;;;;;4960273;28;20200;-74
2022/05/05 12:38:42;;;;;;;25.17;22.50;;;;;;;;;;4951840;28;20212;-74
2022/05/05 12:41:08;;;;;;;25.47;21.17;;;;;;;;;;4953817;28;20189;-74
2022/05/05 12:43:34;;;;;;;23.53;19.60;;;;;;;;;;4943475;28;20224;-74
2022/05/05 12:46:02;;;;;;;21.00;18.63;;;;;;;;;;4948017;28;20292;-74
2022/05/05 12:48:28;;;;;;;20.70;18.43;;;;;;;;;;4948973;28;20174;-74
2022/05/05 12:50:56;;;;;;;24.23;21.73;;;;;;;;;;4947171;28;20193;-74
2022/05/05 13:01:42;;;;;;;23.17;20.63;;;;;;;;;;4953492;29;20202;-74
2022/05/05 13:04:10;;;;;;;21.13;18.13;;;;;;;;;;4947571;28;20201;-74
2022/05/05 13:06:37;;;;;;;24.00;20.47;;;;;;;;;;4972600;28;20208;-74
2022/05/05 13:09:04;;;;;;;22.97;20.50;;;;;;;;;;4960095;28;20181;-74
2022/05/05 13:11:30;;;;;;;21.33;19.23;;;;;;;;;;4972874;28;20187;-73
2022/05/05 13:13:55;;;;;;;20.53;17.27;;;;;;;;;;4951649;28;20205;-74
2022/05/05 13:16:20;;;;;;;24.37;19.73;;;;;;;;;;4954504;28;20188;-74
2022/05/05 13:18:46;;;;;;;23.77;18.33;;;;;;;;;;4950927;29;20183;-73
2022/05/05 13:21:11;;;;;;;21.10;18.67;;;;;;;;;;4953090;29;20224;-74
2022/05/05 13:23:36;;;;;;;20.73;18.60;;;;;;;;;;4956033;28;20234;-74
2022/05/05 13:26:05;;;;;;;19.60;16.90;;;;;;;;;;4969091;28;20221;-74
2022/05/05 13:28:31;;;;;;;21.87;19.40;;;;;;;;;;4947962;29;20267;-74
2022/05/05 13:30:56;;;;;;;17.40;15.60;;;;;;;;;;4952884;28;20191;-74
2022/05/05 13:33:21;;;;;;;19.40;16.57;;;;;;;;;;4973863;28;20256;-74
2022/05/05 13:35:47;;;;;;;20.27;18.07;;;;;;;;;;4959121;28;20244;-73
2022/05/05 13:38:12;;;;;;;21.13;17.57;;;;;;;;;;4954748;28;20207;-74
2022/05/05 13:40:37;;;;;;;23.83;19.30;;;;;;;;;;4959647;28;20217;-74
2022/05/05 13:43:02;;;;;;;21.20;18.60;;;;;;;;;;4954035;28;20248;-74
2022/05/05 13:45:28;;;;;;;21.47;17.50;;;;;;;;;;4960427;28;20206;-74
2022/05/05 13:47:53;;;;;;;20.73;18.17;;;;;;;;;;4964605;28;20183;-74
2022/05/05 13:50:19;;;;;;;19.20;17.10;;;;;;;;;;4963720;28;20790;-74
2022/05/05 13:52:44;;;;;;;20.13;16.93;;;;;;;;;;4948683;28;20221;-74
2022/05/05 13:55:10;;;;;;;23.77;16.47;;;;;;;;;;4950161;28;20314;-74
2022/05/05 13:57:37;;;;;;;21.67;15.97;;;;;;;;;;4953090;28;20185;-74
2022/05/05 14:00:03;;;;;;;18.90;14.83;;;;;;;;;;4955564;28;20249;-74
2022/05/05 14:02:28;;;;;;;17.90;16.00;;;;;;;;;;4951484;28;20190;-73
2022/05/05 14:04:53;;;;;;;18.83;15.70;;;;;;;;;;4965929;28;20248;-74
2022/05/05 14:12:10;;;;;;;20.03;16.53;;;;;;;;;;4947389;28;20186;-74
2022/05/05 14:12:48;;;;;;;19.40;17.07;;;;;;;;;;4951664;28;20234;-74
2022/05/05 14:15:13;;;;;;;19.87;16.30;;;;;;;;;;4952222;28;20189;-73
2022/05/05 14:17:38;;;;;;;20.47;15.67;;;;;;;;;;4951901;28;20189;-74
2022/05/05 14:20:04;;;;;;;17.80;15.50;;;;;;;;;;4951573;28;20190;-74
2022/05/05 14:22:29;;;;;;;19.27;15.20;;;;;;;;;;4952248;28;20227;-73
2022/05/05 14:24:54;;;;;;;17.47;14.50;;;;;;;;;;4952733;28;22828;-73
2022/05/05 14:27:19;;;;;;;20.83;18.60;;;;;;;;;;4952353;28;20707;-73
2022/05/05 14:29:48;;;;;;;22.27;17.60;;;;;;;;;;4947403;28;20207;-74
2022/05/05 14:32:13;;;;;;;23.10;17.93;;;;;;;;;;4958423;28;21263;-74
2022/05/05 14:34:38;;;;;;;21.00;18.13;;;;;;;;;;4949420;28;20180;-74
2022/05/05 14:37:04;;;;;;;20.93;18.73;;;;;;;;;;4947610;28;20200;-74
2022/05/05 14:39:29;;;;;;;16.87;13.33;;;;;;;;;;4949629;28;20282;-74
2022/05/05 14:41:54;;;;;;;18.87;15.97;;;;;;;;;;4952066;28;20199;-73
2022/05/05 14:44:19;;;;;;;23.80;19.57;;;;;;;;;;4950649;28;20316;-74
2022/05/05 14:46:44;;;;;;;19.90;17.47;;;;;;;;;;4948586;28;20228;-74
2022/05/05 14:49:10;;;;;;;21.43;17.80;;;;;;;;;;4952568;28;20230;-74
2022/05/05 14:51:35;;;;;;;21.23;17.33;;;;;;;;;;4949860;28;20174;-73
2022/05/05 14:54:00;;;;;;;23.37;17.20;;;;;;;;;;4953071;28;20186;-73
2022/05/05 14:56:26;;;;;;;27.27;17.60;;;;;;;;;;4957311;28;20180;-74
2022/05/05 14:58:51;;;;;;;22.10;16.33;;;;;;;;;;4952531;28;20187;-73
2022/05/05 15:01:18;;;;;;;24.87;19.20;;;;;;;;;;4946968;28;20349;-74
2022/05/05 15:03:43;;;;;;;22.30;15.63;;;;;;;;;;4946339;28;20232;-73
2022/05/05 15:06:08;;;;;;;28.53;18.93;;;;;;;;;;4948534;28;20281;-74
2022/05/05 15:08:34;;;;;;;21.30;17.63;;;;;;;;;;4948550;28;20241;-73
2022/05/05 15:10:59;;;;;;;24.33;18.20;;;;;;;;;;4949376;28;20249;-73
2022/05/05 15:13:24;;;;;;;27.10;18.17;;;;;;;;;;4955592;28;20177;-73
2022/05/05 15:15:49;;;;;;;27.40;19.37;;;;;;;;;;4948889;28;20193;-73
2022/05/05 15:18:14;;;;;;;26.53;19.90;;;;;;;;;;4950288;28;20189;-73
2022/05/05 15:20:40;;;;;;;23.30;17.37;;;;;;;;;;4946003;28;20178;-73
2022/05/05 15:23:05;;;;;;;25.90;17.67;;;;;;;;;;4949091;28;20222;-73
2022/05/05 15:25:31;;;;;;;24.17;17.63;;;;;;;;;;4951657;28;20204;-76
2022/05/05 15:27:56;;;;;;;26.50;20.60;;;;;;;;;;4943041;28;20181;-77
2022/05/05 15:30:22;;;;;;;24.80;19.73;;;;;;;;;;4949530;28;20325;-77